sensor_id;sensor_type;location;lat;lon;timestamp;P1;durP1;ratioP1;P2;durP2;ratioP2
50739;SDS011;36704;52.524;17.580;2024-01-30T00:02:13;84.28;;;29.80;;
50739;SDS011;36704;52.524;17.580;2024-01-30T00:07:34;71.38;;;23.45;;
50739;SDS011;36704;52.524;17.580;2024-01-30T00:12:55;78.93;;;27.25;;
50739;SDS011;36704;52.524;17.580;2024-01-30T00:18:16;66.38;;;26.40;;
50739;SDS011;36704;52.524;17.580;2024-01-30T00:23:36;75.55;;;25.48;;
50739;SDS011;36704;52.524;17.580;2024-01-30T00:28:57;59.63;;;22.10;;
50739;SDS011;36704;52.524;17.580;2024-01-30T00:34:19;51.65;;;18.83;;
50739;SDS011;36704;52.524;17.580;2024-01-30T00:39:40;66.75;;;24.15;;
50739;SDS011;36704;52.524;17.580;2024-01-30T00:45:01;87.18;;;26.73;;
50739;SDS011;36704;52.524;17.580;2024-01-30T00:50:23;83.27;;;23.93;;
50739;SDS011;36704;52.524;17.580;2024-01-30T00:55:44;73.90;;;22.58;;
50739;SDS011;36704;52.524;17.580;2024-01-30T01:01:04;102.57;;;27.98;;
50739;SDS011;36704;52.524;17.580;2024-01-30T01:06:25;133.20;;;31.25;;
50739;SDS011;36704;52.524;17.580;2024-01-30T01:11:47;105.45;;;29.35;;
50739;SDS011;36704;52.524;17.580;2024-01-30T01:17:08;105.78;;;25.60;;
50739;SDS011;36704;52.524;17.580;2024-01-30T01:22:29;130.63;;;28.77;;
50739;SDS011;36704;52.524;17.580;2024-01-30T01:27:50;71.53;;;21.90;;
50739;SDS011;36704;52.524;17.580;2024-01-30T01:33:13;143.88;;;29.30;;
50739;SDS011;36704;52.524;17.580;2024-01-30T01:38:35;122.35;;;28.02;;
50739;SDS011;36704;52.524;17.580;2024-01-30T01:43:57;108.03;;;22.92;;
50739;SDS011;36704;52.524;17.580;2024-01-30T01:49:19;73.53;;;20.52;;
50739;SDS011;36704;52.524;17.580;2024-01-30T01:54:40;46.77;;;17.37;;
50739;SDS011;36704;52.524;17.580;2024-01-30T02:00:01;84.85;;;24.40;;
50739;SDS011;36704;52.524;17.580;2024-01-30T02:05:28;83.75;;;21.50;;
50739;SDS011;36704;52.524;17.580;2024-01-30T02:10:49;80.72;;;21.65;;
50739;SDS011;36704;52.524;17.580;2024-01-30T02:16:10;78.88;;;23.33;;
50739;SDS011;36704;52.524;17.580;2024-01-30T02:21:30;68.45;;;18.27;;
50739;SDS011;36704;52.524;17.580;2024-01-30T02:26:51;66.93;;;19.58;;
50739;SDS011;36704;52.524;17.580;2024-01-30T02:32:12;105.18;;;23.50;;
50739;SDS011;36704;52.524;17.580;2024-01-30T02:37:33;74.80;;;20.50;;
50739;SDS011;36704;52.524;17.580;2024-01-30T02:42:54;69.07;;;20.42;;
50739;SDS011;36704;52.524;17.580;2024-01-30T02:48:15;78.97;;;21.92;;
50739;SDS011;36704;52.524;17.580;2024-01-30T02:53:36;127.47;;;27.55;;
50739;SDS011;36704;52.524;17.580;2024-01-30T02:58:57;73.63;;;18.60;;
50739;SDS011;36704;52.524;17.580;2024-01-30T03:04:18;72.03;;;20.23;;
50739;SDS011;36704;52.524;17.580;2024-01-30T03:09:40;107.43;;;25.58;;
50739;SDS011;36704;52.524;17.580;2024-01-30T03:15:02;81.00;;;21.13;;
50739;SDS011;36704;52.524;17.580;2024-01-30T03:20:24;107.18;;;24.42;;
50739;SDS011;36704;52.524;17.580;2024-01-30T03:25:45;139.50;;;31.02;;
50739;SDS011;36704;52.524;17.580;2024-01-30T03:31:06;82.20;;;22.08;;
50739;SDS011;36704;52.524;17.580;2024-01-30T03:36:27;74.17;;;19.03;;
50739;SDS011;36704;52.524;17.580;2024-01-30T03:41:48;62.50;;;18.20;;
50739;SDS011;36704;52.524;17.580;2024-01-30T03:47:09;90.45;;;18.92;;
50739;SDS011;36704;52.524;17.580;2024-01-30T03:52:30;43.97;;;15.25;;
50739;SDS011;36704;52.524;17.580;2024-01-30T03:57:51;49.78;;;16.98;;
50739;SDS011;36704;52.524;17.580;2024-01-30T04:03:14;77.80;;;19.88;;
50739;SDS011;36704;52.524;17.580;2024-01-30T04:08:36;54.40;;;17.15;;
50739;SDS011;36704;52.524;17.580;2024-01-30T04:13:57;802.53;;;237.07;;
50739;SDS011;36704;52.524;17.580;2024-01-30T04:19:19;710.25;;;246.95;;
50739;SDS011;36704;52.524;17.580;2024-01-30T04:24:40;436.13;;;129.88;;
50739;SDS011;36704;52.524;17.580;2024-01-30T04:30:01;376.20;;;109.40;;
50739;SDS011;36704;52.524;17.580;2024-01-30T04:35:22;123.65;;;37.50;;
50739;SDS011;36704;52.524;17.580;2024-01-30T04:40:45;35.47;;;14.63;;
50739;SDS011;36704;52.524;17.580;2024-01-30T04:46:06;22.55;;;11.98;;
50739;SDS011;36704;52.524;17.580;2024-01-30T04:51:27;26.05;;;11.82;;
50739;SDS011;36704;52.524;17.580;2024-01-30T04:56:48;24.50;;;11.05;;
50739;SDS011;36704;52.524;17.580;2024-01-30T05:02:09;28.98;;;13.75;;
50739;SDS011;36704;52.524;17.580;2024-01-30T05:07:30;93.88;;;33.10;;
50739;SDS011;36704;52.524;17.580;2024-01-30T05:12:51;22.67;;;10.13;;
50739;SDS011;36704;52.524;17.580;2024-01-30T05:18:12;22.48;;;10.63;;
50739;SDS011;36704;52.524;17.580;2024-01-30T05:23:33;28.58;;;11.20;;
50739;SDS011;36704;52.524;17.580;2024-01-30T05:28:54;21.30;;;9.27;;
50739;SDS011;36704;52.524;17.580;2024-01-30T05:34:15;24.80;;;10.07;;
50739;SDS011;36704;52.524;17.580;2024-01-30T05:39:37;33.53;;;12.75;;
50739;SDS011;36704;52.524;17.580;2024-01-30T05:44:58;72.80;;;21.27;;
50739;SDS011;36704;52.524;17.580;2024-01-30T05:50:19;49.60;;;16.58;;
50739;SDS011;36704;52.524;17.580;2024-01-30T05:55:40;87.60;;;21.27;;
50739;SDS011;36704;52.524;17.580;2024-01-30T06:01:01;65.63;;;18.13;;
50739;SDS011;36704;52.524;17.580;2024-01-30T06:06:22;67.30;;;18.40;;
50739;SDS011;36704;52.524;17.580;2024-01-30T06:11:44;72.15;;;21.13;;
50739;SDS011;36704;52.524;17.580;2024-01-30T06:17:06;70.07;;;18.93;;
50739;SDS011;36704;52.524;17.580;2024-01-30T06:22:26;99.20;;;22.33;;
50739;SDS011;36704;52.524;17.580;2024-01-30T06:27:47;124.18;;;24.42;;
50739;SDS011;36704;52.524;17.580;2024-01-30T06:33:11;50.08;;;14.48;;
50739;SDS011;36704;52.524;17.580;2024-01-30T06:38:33;139.35;;;29.42;;
50739;SDS011;36704;52.524;17.580;2024-01-30T06:43:54;48.92;;;14.32;;
50739;SDS011;36704;52.524;17.580;2024-01-30T06:49:15;76.70;;;17.48;;
50739;SDS011;36704;52.524;17.580;2024-01-30T06:54:36;51.72;;;16.77;;
50739;SDS011;36704;52.524;17.580;2024-01-30T06:59:57;60.88;;;16.33;;
50739;SDS011;36704;52.524;17.580;2024-01-30T07:05:18;73.60;;;28.58;;
50739;SDS011;36704;52.524;17.580;2024-01-30T07:10:40;47.60;;;17.37;;
50739;SDS011;36704;52.524;17.580;2024-01-30T07:16:01;183.55;;;39.03;;
50739;SDS011;36704;52.524;17.580;2024-01-30T07:21:22;99.10;;;33.10;;
50739;SDS011;36704;52.524;17.580;2024-01-30T07:26:48;52.00;;;20.33;;
50739;SDS011;36704;52.524;17.580;2024-01-30T07:32:09;45.90;;;18.95;;
50739;SDS011;36704;52.524;17.580;2024-01-30T07:37:30;68.33;;;30.27;;
50739;SDS011;36704;52.524;17.580;2024-01-30T07:42:52;31.33;;;14.48;;
50739;SDS011;36704;52.524;17.580;2024-01-30T07:48:14;34.47;;;14.77;;
50739;SDS011;36704;52.524;17.580;2024-01-30T07:53:35;120.22;;;37.92;;
50739;SDS011;36704;52.524;17.580;2024-01-30T07:58:55;53.50;;;22.10;;
50739;SDS011;36704;52.524;17.580;2024-01-30T08:04:16;81.65;;;29.98;;
50739;SDS011;36704;52.524;17.580;2024-01-30T08:09:38;49.70;;;19.67;;
50739;SDS011;36704;52.524;17.580;2024-01-30T08:14:59;28.42;;;13.55;;
50739;SDS011;36704;52.524;17.580;2024-01-30T08:20:20;26.65;;;13.25;;
50739;SDS011;36704;52.524;17.580;2024-01-30T08:25:41;26.90;;;12.90;;
50739;SDS011;36704;52.524;17.580;2024-01-30T08:31:02;28.98;;;13.95;;
50739;SDS011;36704;52.524;17.580;2024-01-30T08:36:23;28.05;;;13.70;;
50739;SDS011;36704;52.524;17.580;2024-01-30T08:41:44;35.55;;;14.77;;
50739;SDS011;36704;52.524;17.580;2024-01-30T08:47:05;40.27;;;18.13;;
50739;SDS011;36704;52.524;17.580;2024-01-30T08:52:26;49.13;;;22.13;;
50739;SDS011;36704;52.524;17.580;2024-01-30T08:57:48;43.83;;;20.07;;
50739;SDS011;36704;52.524;17.580;2024-01-30T09:03:09;26.77;;;14.23;;
50739;SDS011;36704;52.524;17.580;2024-01-30T09:08:30;51.22;;;19.92;;
50739;SDS011;36704;52.524;17.580;2024-01-30T09:13:51;49.85;;;21.27;;
50739;SDS011;36704;52.524;17.580;2024-01-30T09:19:12;38.47;;;17.25;;
50739;SDS011;36704;52.524;17.580;2024-01-30T09:24:33;26.97;;;13.27;;
50739;SDS011;36704;52.524;17.580;2024-01-30T09:29:55;29.37;;;13.47;;
50739;SDS011;36704;52.524;17.580;2024-01-30T09:35:15;31.45;;;14.23;;
50739;SDS011;36704;52.524;17.580;2024-01-30T09:40:37;25.42;;;12.23;;
50739;SDS011;36704;52.524;17.580;2024-01-30T09:45:59;27.17;;;12.75;;
50739;SDS011;36704;52.524;17.580;2024-01-30T09:51:20;26.67;;;12.27;;
50739;SDS011;36704;52.524;17.580;2024-01-30T09:56:41;35.72;;;14.73;;
50739;SDS011;36704;52.524;17.580;2024-01-30T10:02:03;48.57;;;18.73;;
50739;SDS011;36704;52.524;17.580;2024-01-30T10:07:24;86.20;;;30.70;;
50739;SDS011;36704;52.524;17.580;2024-01-30T10:12:45;55.65;;;20.92;;
50739;SDS011;36704;52.524;17.580;2024-01-30T10:18:10;60.67;;;23.63;;
50739;SDS011;36704;52.524;17.580;2024-01-30T10:23:31;48.55;;;19.67;;
50739;SDS011;36704;52.524;17.580;2024-01-30T10:28:55;37.20;;;16.40;;
50739;SDS011;36704;52.524;17.580;2024-01-30T10:34:16;31.58;;;14.25;;
50739;SDS011;36704;52.524;17.580;2024-01-30T10:39:44;28.50;;;13.48;;
50739;SDS011;36704;52.524;17.580;2024-01-30T10:45:08;36.60;;;16.45;;
50739;SDS011;36704;52.524;17.580;2024-01-30T10:50:30;30.00;;;13.80;;
50739;SDS011;36704;52.524;17.580;2024-01-30T10:55:53;34.70;;;14.38;;
50739;SDS011;36704;52.524;17.580;2024-01-30T11:01:14;25.97;;;13.77;;
50739;SDS011;36704;52.524;17.580;2024-01-30T11:06:41;24.85;;;12.48;;
50739;SDS011;36704;52.524;17.580;2024-01-30T11:12:04;35.88;;;16.55;;
50739;SDS011;36704;52.524;17.580;2024-01-30T11:17:27;45.92;;;17.63;;
50739;SDS011;36704;52.524;17.580;2024-01-30T11:22:50;26.80;;;11.80;;
50739;SDS011;36704;52.524;17.580;2024-01-30T11:28:15;26.98;;;13.23;;
50739;SDS011;36704;52.524;17.580;2024-01-30T11:33:37;26.02;;;13.82;;
50739;SDS011;36704;52.524;17.580;2024-01-30T11:38:59;28.23;;;12.20;;
50739;SDS011;36704;52.524;17.580;2024-01-30T11:44:19;89.35;;;28.45;;
50739;SDS011;36704;52.524;17.580;2024-01-30T11:49:41;32.37;;;14.97;;
50739;SDS011;36704;52.524;17.580;2024-01-30T11:55:02;46.20;;;19.02;;
50739;SDS011;36704;52.524;17.580;2024-01-30T12:00:24;26.05;;;13.60;;
50739;SDS011;36704;52.524;17.580;2024-01-30T12:05:45;27.17;;;13.63;;
50739;SDS011;36704;52.524;17.580;2024-01-30T12:11:06;31.30;;;13.93;;
50739;SDS011;36704;52.524;17.580;2024-01-30T12:16:27;31.77;;;15.35;;
50739;SDS011;36704;52.524;17.580;2024-01-30T12:21:53;25.30;;;14.20;;
50739;SDS011;36704;52.524;17.580;2024-01-30T12:27:17;36.20;;;17.20;;
50739;SDS011;36704;52.524;17.580;2024-01-30T12:32:39;49.50;;;25.10;;
50739;SDS011;36704;52.524;17.580;2024-01-30T12:38:01;45.70;;;19.27;;
50739;SDS011;36704;52.524;17.580;2024-01-30T12:43:23;30.70;;;16.77;;
50739;SDS011;36704;52.524;17.580;2024-01-30T12:48:58;22.52;;;11.55;;
50739;SDS011;36704;52.524;17.580;2024-01-30T12:54:19;33.40;;;19.13;;
50739;SDS011;36704;52.524;17.580;2024-01-30T12:59:40;22.05;;;11.25;;
50739;SDS011;36704;52.524;17.580;2024-01-30T13:05:02;28.98;;;20.70;;
50739;SDS011;36704;52.524;17.580;2024-01-30T13:10:24;28.63;;;11.88;;
50739;SDS011;36704;52.524;17.580;2024-01-30T13:15:46;25.58;;;12.23;;
50739;SDS011;36704;52.524;17.580;2024-01-30T13:21:08;26.10;;;12.80;;
50739;SDS011;36704;52.524;17.580;2024-01-30T13:26:29;38.78;;;22.65;;
50739;SDS011;36704;52.524;17.580;2024-01-30T13:31:51;25.88;;;12.80;;
50739;SDS011;36704;52.524;17.580;2024-01-30T13:37:12;32.13;;;16.80;;
50739;SDS011;36704;52.524;17.580;2024-01-30T13:42:34;33.63;;;16.90;;
50739;SDS011;36704;52.524;17.580;2024-01-30T13:47:55;34.63;;;18.65;;
50739;SDS011;36704;52.524;17.580;2024-01-30T13:53:16;97.27;;;34.13;;
50739;SDS011;36704;52.524;17.580;2024-01-30T13:58:37;57.05;;;23.85;;
50739;SDS011;36704;52.524;17.580;2024-01-30T14:03:58;59.85;;;25.20;;
50739;SDS011;36704;52.524;17.580;2024-01-30T14:09:19;111.45;;;48.00;;
50739;SDS011;36704;52.524;17.580;2024-01-30T14:14:41;99.88;;;41.10;;
50739;SDS011;36704;52.524;17.580;2024-01-30T14:20:02;72.00;;;29.08;;
50739;SDS011;36704;52.524;17.580;2024-01-30T14:25:25;73.43;;;25.60;;
50739;SDS011;36704;52.524;17.580;2024-01-30T14:30:46;99.30;;;28.92;;
50739;SDS011;36704;52.524;17.580;2024-01-30T14:36:07;45.93;;;19.40;;
50739;SDS011;36704;52.524;17.580;2024-01-30T14:41:29;40.45;;;17.10;;
50739;SDS011;36704;52.524;17.580;2024-01-30T14:46:51;42.70;;;16.33;;
50739;SDS011;36704;52.524;17.580;2024-01-30T14:52:12;65.17;;;25.87;;
50739;SDS011;36704;52.524;17.580;2024-01-30T14:57:33;72.57;;;27.67;;
50739;SDS011;36704;52.524;17.580;2024-01-30T15:02:55;48.55;;;19.15;;
50739;SDS011;36704;52.524;17.580;2024-01-30T15:08:16;49.63;;;20.53;;
50739;SDS011;36704;52.524;17.580;2024-01-30T15:13:37;65.18;;;26.25;;
50739;SDS011;36704;52.524;17.580;2024-01-30T15:18:59;44.05;;;19.77;;
50739;SDS011;36704;52.524;17.580;2024-01-30T15:24:20;45.77;;;22.40;;
50739;SDS011;36704;52.524;17.580;2024-01-30T15:29:45;69.78;;;27.90;;
50739;SDS011;36704;52.524;17.580;2024-01-30T15:35:06;99.85;;;37.42;;
50739;SDS011;36704;52.524;17.580;2024-01-30T15:40:27;188.30;;;84.67;;
50739;SDS011;36704;52.524;17.580;2024-01-30T15:45:49;106.40;;;41.93;;
50739;SDS011;36704;52.524;17.580;2024-01-30T15:51:34;103.72;;;37.08;;
50739;SDS011;36704;52.524;17.580;2024-01-30T15:57:15;101.05;;;39.17;;
50739;SDS011;36704;52.524;17.580;2024-01-30T16:02:56;148.25;;;56.85;;
50739;SDS011;36704;52.524;17.580;2024-01-30T16:08:39;78.43;;;36.35;;
50739;SDS011;36704;52.524;17.580;2024-01-30T16:14:23;130.35;;;59.20;;
50739;SDS011;36704;52.524;17.580;2024-01-30T16:20:04;115.53;;;46.50;;
50739;SDS011;36704;52.524;17.580;2024-01-30T16:25:52;121.50;;;42.83;;
50739;SDS011;36704;52.524;17.580;2024-01-30T16:31:32;145.90;;;48.75;;
50739;SDS011;36704;52.524;17.580;2024-01-30T16:37:17;133.85;;;39.67;;
50739;SDS011;36704;52.524;17.580;2024-01-30T16:43:03;149.93;;;46.22;;
50739;SDS011;36704;52.524;17.580;2024-01-30T16:48:47;140.07;;;47.25;;
50739;SDS011;36704;52.524;17.580;2024-01-30T16:54:36;164.75;;;54.60;;
50739;SDS011;36704;52.524;17.580;2024-01-30T17:00:16;193.25;;;63.13;;
50739;SDS011;36704;52.524;17.580;2024-01-30T17:05:58;191.10;;;59.47;;
50739;SDS011;36704;52.524;17.580;2024-01-30T17:11:48;218.13;;;60.38;;
50739;SDS011;36704;52.524;17.580;2024-01-30T17:17:29;207.68;;;60.72;;
50739;SDS011;36704;52.524;17.580;2024-01-30T17:23:15;150.40;;;44.78;;
50739;SDS011;36704;52.524;17.580;2024-01-30T17:29:03;191.32;;;56.90;;
50739;SDS011;36704;52.524;17.580;2024-01-30T17:34:47;187.70;;;52.45;;
50739;SDS011;36704;52.524;17.580;2024-01-30T17:40:34;200.07;;;56.17;;
50739;SDS011;36704;52.524;17.580;2024-01-30T17:46:20;147.02;;;55.47;;
50739;SDS011;36704;52.524;17.580;2024-01-30T17:52:01;175.40;;;58.97;;
50739;SDS011;36704;52.524;17.580;2024-01-30T17:57:47;260.50;;;96.95;;
50739;SDS011;36704;52.524;17.580;2024-01-30T18:08:31;116.60;;;42.08;;
50739;SDS011;36704;52.524;17.580;2024-01-30T18:13:53;94.57;;;41.28;;
50739;SDS011;36704;52.524;17.580;2024-01-30T18:19:16;94.85;;;39.22;;
50739;SDS011;36704;52.524;17.580;2024-01-30T18:24:39;120.05;;;47.15;;
50739;SDS011;36704;52.524;17.580;2024-01-30T18:30:00;93.53;;;38.10;;
50739;SDS011;36704;52.524;17.580;2024-01-30T18:35:20;110.70;;;48.28;;
50739;SDS011;36704;52.524;17.580;2024-01-30T18:40:42;57.97;;;26.23;;
50739;SDS011;36704;52.524;17.580;2024-01-30T18:46:03;64.53;;;28.38;;
50739;SDS011;36704;52.524;17.580;2024-01-30T18:51:24;64.38;;;27.35;;
50739;SDS011;36704;52.524;17.580;2024-01-30T18:56:45;54.67;;;25.13;;
50739;SDS011;36704;52.524;17.580;2024-01-30T19:02:06;71.40;;;32.47;;
50739;SDS011;36704;52.524;17.580;2024-01-30T19:07:27;69.40;;;29.05;;
50739;SDS011;36704;52.524;17.580;2024-01-30T19:12:49;77.30;;;35.43;;
50739;SDS011;36704;52.524;17.580;2024-01-30T19:18:10;110.82;;;49.83;;
50739;SDS011;36704;52.524;17.580;2024-01-30T19:23:32;81.03;;;38.78;;
50739;SDS011;36704;52.524;17.580;2024-01-30T19:28:53;104.10;;;38.42;;
50739;SDS011;36704;52.524;17.580;2024-01-30T19:34:14;75.88;;;31.23;;
50739;SDS011;36704;52.524;17.580;2024-01-30T19:39:35;111.85;;;38.97;;
50739;SDS011;36704;52.524;17.580;2024-01-30T19:44:55;74.00;;;31.45;;
50739;SDS011;36704;52.524;17.580;2024-01-30T19:50:16;67.28;;;30.70;;
50739;SDS011;36704;52.524;17.580;2024-01-30T19:55:37;61.78;;;29.10;;
50739;SDS011;36704;52.524;17.580;2024-01-30T20:00:58;55.15;;;27.50;;
50739;SDS011;36704;52.524;17.580;2024-01-30T20:06:22;72.40;;;28.83;;
50739;SDS011;36704;52.524;17.580;2024-01-30T20:11:43;56.47;;;24.42;;
50739;SDS011;36704;52.524;17.580;2024-01-30T20:17:04;54.20;;;23.27;;
50739;SDS011;36704;52.524;17.580;2024-01-30T20:22:25;46.80;;;22.30;;
50739;SDS011;36704;52.524;17.580;2024-01-30T20:27:47;54.20;;;23.27;;
50739;SDS011;36704;52.524;17.580;2024-01-30T20:33:08;54.17;;;22.58;;
50739;SDS011;36704;52.524;17.580;2024-01-30T20:38:34;116.50;;;41.50;;
50739;SDS011;36704;52.524;17.580;2024-01-30T20:44:00;70.68;;;28.13;;
50739;SDS011;36704;52.524;17.580;2024-01-30T20:49:21;126.97;;;44.78;;
50739;SDS011;36704;52.524;17.580;2024-01-30T20:54:43;120.37;;;43.27;;
50739;SDS011;36704;52.524;17.580;2024-01-30T21:00:05;66.32;;;29.25;;
50739;SDS011;36704;52.524;17.580;2024-01-30T21:05:30;40.67;;;18.67;;
50739;SDS011;36704;52.524;17.580;2024-01-30T21:10:51;49.75;;;22.48;;
50739;SDS011;36704;52.524;17.580;2024-01-30T21:16:13;43.63;;;19.38;;
50739;SDS011;36704;52.524;17.580;2024-01-30T21:21:34;43.88;;;18.95;;
50739;SDS011;36704;52.524;17.580;2024-01-30T21:26:54;36.35;;;17.95;;
50739;SDS011;36704;52.524;17.580;2024-01-30T21:32:15;40.20;;;18.70;;
50739;SDS011;36704;52.524;17.580;2024-01-30T21:37:36;45.97;;;20.15;;
50739;SDS011;36704;52.524;17.580;2024-01-30T21:42:57;45.00;;;18.70;;
50739;SDS011;36704;52.524;17.580;2024-01-30T21:48:18;65.18;;;25.05;;
50739;SDS011;36704;52.524;17.580;2024-01-30T21:53:39;126.93;;;38.80;;
50739;SDS011;36704;52.524;17.580;2024-01-30T21:58:59;63.97;;;23.05;;
50739;SDS011;36704;52.524;17.580;2024-01-30T22:04:20;57.20;;;24.90;;
50739;SDS011;36704;52.524;17.580;2024-01-30T22:09:44;44.65;;;21.35;;
50739;SDS011;36704;52.524;17.580;2024-01-30T22:15:05;48.95;;;22.60;;
50739;SDS011;36704;52.524;17.580;2024-01-30T22:20:28;46.15;;;21.00;;
50739;SDS011;36704;52.524;17.580;2024-01-30T22:25:50;61.33;;;25.17;;
50739;SDS011;36704;52.524;17.580;2024-01-30T22:31:11;43.00;;;18.73;;
50739;SDS011;36704;52.524;17.580;2024-01-30T22:36:32;37.92;;;19.48;;
50739;SDS011;36704;52.524;17.580;2024-01-30T22:41:53;45.30;;;19.25;;
50739;SDS011;36704;52.524;17.580;2024-01-30T22:47:14;40.05;;;20.13;;
50739;SDS011;36704;52.524;17.580;2024-01-30T22:52:35;41.85;;;19.27;;
50739;SDS011;36704;52.524;17.580;2024-01-30T22:57:56;41.63;;;19.25;;
50739;SDS011;36704;52.524;17.580;2024-01-30T23:03:17;41.28;;;19.05;;
50739;SDS011;36704;52.524;17.580;2024-01-30T23:08:44;33.25;;;17.17;;
50739;SDS011;36704;52.524;17.580;2024-01-30T23:14:06;36.67;;;18.00;;
50739;SDS011;36704;52.524;17.580;2024-01-30T23:19:27;37.85;;;17.98;;
50739;SDS011;36704;52.524;17.580;2024-01-30T23:24:48;42.87;;;19.33;;
50739;SDS011;36704;52.524;17.580;2024-01-30T23:30:09;38.43;;;16.07;;
50739;SDS011;36704;52.524;17.580;2024-01-30T23:35:31;36.13;;;16.27;;
50739;SDS011;36704;52.524;17.580;2024-01-30T23:40:52;35.40;;;14.30;;
50739;SDS011;36704;52.524;17.580;2024-01-30T23:46:13;32.63;;;15.18;;
50739;SDS011;36704;52.524;17.580;2024-01-30T23:51:34;32.45;;;14.68;;
50739;SDS011;36704;52.524;17.580;2024-01-30T23:56:56;39.58;;;16.23;;
